Map

Track Data

SID SEASON NUMBER BASIN SUBBASIN NAME ISO_TIME NATURE LAT LON WMO_WIND WMO_PRES WMO_AGENCY TRACK_TYPE DIST2LAND LANDFALL IFLAG USA_AGENCY USA_ATCF_ID USA_LAT USA_LON USA_RECORD USA_STATUS USA_WIND USA_PRES USA_SSHS USA_R34_NE USA_R34_SE USA_R34_SW USA_R34_NW USA_R50_NE USA_R50_SE USA_R50_SW USA_R50_NW USA_R64_NE USA_R64_SE USA_R64_SW USA_R64_NW USA_POCI USA_ROCI USA_RMW USA_EYE TOKYO_LAT TOKYO_LON TOKYO_GRADE TOKYO_WIND TOKYO_PRES TOKYO_R50_DIR TOKYO_R50_LONG TOKYO_R50_SHORT TOKYO_R30_DIR TOKYO_R30_LONG TOKYO_R30_SHORT TOKYO_LAND CMA_LAT CMA_LON CMA_CAT CMA_WIND CMA_PRES HKO_LAT HKO_LON HKO_CAT HKO_WIND HKO_PRES NEWDELHI_LAT NEWDELHI_LON NEWDELHI_GRADE NEWDELHI_WIND NEWDELHI_PRES NEWDELHI_CI NEWDELHI_DP NEWDELHI_POCI REUNION_LAT REUNION_LON REUNION_TYPE REUNION_WIND REUNION_PRES REUNION_TNUM REUNION_CI REUNION_RMW REUNION_R34_NE REUNION_R34_SE REUNION_R34_SW REUNION_R34_NW REUNION_R50_NE REUNION_R50_SE REUNION_R50_SW REUNION_R50_NW REUNION_R64_NE REUNION_R64_SE REUNION_R64_SW REUNION_R64_NW BOM_LAT BOM_LON BOM_TYPE BOM_WIND BOM_PRES BOM_TNUM BOM_CI BOM_RMW BOM_R34_NE BOM_R34_SE BOM_R34_SW BOM_R34_NW BOM_R50_NE BOM_R50_SE BOM_R50_SW BOM_R50_NW BOM_R64_NE BOM_R64_SE BOM_R64_SW BOM_R64_NW BOM_ROCI BOM_POCI BOM_EYE BOM_POS_METHOD BOM_PRES_METHOD NADI_LAT NADI_LON NADI_CAT NADI_WIND NADI_PRES WELLINGTON_LAT WELLINGTON_LON WELLINGTON_WIND WELLINGTON_PRES DS824_LAT DS824_LON DS824_STAGE DS824_WIND DS824_PRES TD9636_LAT TD9636_LON TD9636_STAGE TD9636_WIND TD9636_PRES TD9635_LAT TD9635_LON TD9635_WIND TD9635_PRES TD9635_ROCI NEUMANN_LAT NEUMANN_LON NEUMANN_CLASS NEUMANN_WIND NEUMANN_PRES MLC_LAT MLC_LON MLC_CLASS MLC_WIND MLC_PRES USA_GUST BOM_GUST BOM_GUST_PER REUNION_GUST REUNION_GUST_PER USA_SEAHGT USA_SEARAD_NE USA_SEARAD_SE USA_SEARAD_SW USA_SEARAD_NW STORM_SPEED STORM_DIR
1908032S14431 1908 7 SI MM NOT_NAMED 1908-01-31 18:00:00 NR -14.3000 70.6000 main 1515 1475 __________O___ -1 -14.3000 70.6000 7 7 243
1908032S14431 1908 7 SI MM NOT_NAMED 1908-01-31 21:00:00 NR -14.4661 70.2677 main 1475 1442 __________P___ -1 -14.4661 70.2677 7 7 243
1908032S14431 1908 7 SI MM NOT_NAMED 1908-02-01 00:00:00 NR -14.6256 69.9481 main 1432 1403 __________P___ -1 -14.6256 69.9481 7 7 243
1908032S14431 1908 7 SI MM NOT_NAMED 1908-02-01 03:00:00 NR -14.7722 69.6544 main 1403 1369 __________P___ -1 -14.7722 69.6544 7 6 243
1908032S14431 1908 7 SI MM NOT_NAMED 1908-02-01 06:00:00 NR -14.9000 69.4000 main 1369 1345 __________O___ -1 -14.9000 69.4000 7 5 242
1908032S14431 1908 7 SI MM NOT_NAMED 1908-02-01 09:00:00 NR -15.0060 69.1928 main 1345 1320 __________P___ -1 -15.0060 69.1928 7 4 241
1908032S14431 1908 7 SI MM NOT_NAMED 1908-02-01 12:00:00 NR -15.0997 69.0196 main 1320 1306 __________P___ -1 -15.0997 69.0196 7 4 239
1908032S14431 1908 7 SI MM NOT_NAMED 1908-02-01 15:00:00 NR -15.1935 68.8616 main 1306 1282 __________P___ -1 -15.1935 68.8616 7 4 237
1908032S14431 1908 7 SI MM NOT_NAMED 1908-02-01 18:00:00 NR -15.3000 68.7000 main 1282 1257 __________O___ -1 -15.3000 68.7000 7 4 235
1908032S14431 1908 7 SI MM NOT_NAMED 1908-02-01 21:00:00 NR -15.4315 68.5112 main 1257 1228 __________P___ -1 -15.4315 68.5112 7 5 233
1908032S14431 1908 7 SI MM NOT_NAMED 1908-02-02 00:00:00 NR -15.5774 68.3149 main 1228 1204 __________P___ -1 -15.5774 68.3149 7 5 232
1908032S14431 1908 7 SI MM NOT_NAMED 1908-02-02 03:00:00 NR -15.7346 68.1112 main 1204 1175 __________P___ -1 -15.7346 68.1112 7 5 231
1908032S14431 1908 7 SI MM NOT_NAMED 1908-02-02 06:00:00 NR -15.9000 67.9000 main 1175 1151 __________O___ -1 -15.9000 67.9000 7 5 232
1908032S14431 1908 7 SI MM NOT_NAMED 1908-02-02 09:00:00 NR -16.0556 67.6820 main 1146 1122 __________P___ -1 -16.0556 67.6820 7 5 233
1908032S14431 1908 7 SI MM NOT_NAMED 1908-02-02 12:00:00 NR -16.2200 67.4573 main 1122 1083 __________P___ -1 -16.2200 67.4573 7 6 232
1908032S14431 1908 7 SI MM NOT_NAMED 1908-02-02 15:00:00 NR -16.3993 67.2289 main 1083 1054 __________P___ -1 -16.3993 67.2289 7 6 229
1908032S14431 1908 7 SI MM NOT_NAMED 1908-02-02 18:00:00 NR -16.6000 67.0000 main 1054 1026 __________O___ -1 -16.6000 67.0000 7 6 226
1908032S14431 1908 7 SI MM NOT_NAMED 1908-02-02 21:00:00 NR -16.8366 66.7589 main 1026 983 __________P___ -1 -16.8366 66.7589 7 7 223
1908032S14431 1908 7 SI MM NOT_NAMED 1908-02-03 00:00:00 NR -17.0926 66.5202 main 983 955 __________P___ -1 -17.0926 66.5202 7 7 221
1908032S14431 1908 7 SI MM NOT_NAMED 1908-02-03 03:00:00 NR -17.3522 66.2964 main 951 923 __________P___ -1 -17.3522 66.2964 7 6 218
1908032S14431 1908 7 SI MM NOT_NAMED 1908-02-03 06:00:00 NR -17.6000 66.1000 main 923 895 __________O___ -1 -17.6000 66.1000 7 6 216
1908032S14431 1908 7 SI MM NOT_NAMED 1908-02-03 09:00:00 NR -17.8102 65.9419 main 895 878 __________P___ -1 -17.8102 65.9419 7 5 214
1908032S14431 1908 7 SI MM NOT_NAMED 1908-02-03 12:00:00 NR -18.0073 65.8121 main 878 861 __________P___ -1 -18.0073 65.8121 7 5 210
1908032S14431 1908 7 SI MM NOT_NAMED 1908-02-03 15:00:00 NR -18.2008 65.7013 main 861 845 __________P___ -1 -18.2008 65.7013 7 4 207
1908032S14431 1908 7 SI MM NOT_NAMED 1908-02-03 18:00:00 NR -18.4000 65.6000 main 845 829 __________O___ -1 -18.4000 65.6000 7 5 208
1908032S14431 1908 7 SI MM NOT_NAMED 1908-02-03 21:00:00 NR -18.6056 65.4766 main 829 813 __________P___ -1 -18.6056 65.4766 7 5 208
1908032S14431 1908 7 SI MM NOT_NAMED 1908-02-04 00:00:00 NR -18.8200 65.3626 main 813 798 __________P___ -1 -18.8200 65.3626 7 5 204
1908032S14431 1908 7 SI MM NOT_NAMED 1908-02-04 03:00:00 NR -19.0494 65.2673 main 798 782 __________P___ -1 -19.0494 65.2673 7 5 198
1908032S14431 1908 7 SI MM NOT_NAMED 1908-02-04 06:00:00 NR -19.3000 65.2000 main 782 777 __________O___ -1 -19.3000 65.2000 7 5 190
1908032S14431 1908 7 SI MM NOT_NAMED 1908-02-04 09:00:00 NR -19.5784 65.1710 main 777 773 __________P___ -1 -19.5784 65.1710 7 6 184
1908032S14431 1908 7 SI MM NOT_NAMED 1908-02-04 12:00:00 NR -19.8775 65.1697 main 773 771 __________P___ -1 -19.8775 65.1697 7 6 0
1908032S14431 1908 7 SI MM NOT_NAMED 1908-02-04 15:00:00 NR -20.1878 65.1836 main 771 771 __________P___ -1 -20.1878 65.1836 7 6 176
1908032S14431 1908 7 SI MM NOT_NAMED 1908-02-04 18:00:00 NR -20.5000 65.2000 main 771 771 __________O___ -1 -20.5000 65.2000 7 6 178
1908032S14431 1908 7 SI MM NOT_NAMED 1908-02-04 21:00:00 NR -20.7553 65.1960 main 772 772 __________P___ -1 -20.7553 65.1960 7 5 0
1908032S14431 1908 7 SI MM NOT_NAMED 1908-02-05 00:00:00 NR -21.0176 65.1927 main 773 773 __________P___ -1 -21.0176 65.1927 7 6 0
1908032S14431 1908 7 SI MM NOT_NAMED 1908-02-05 03:00:00 NR -21.3210 65.1929 main 777 777 __________P___ -1 -21.3210 65.1929 7 7 178
1908032S14431 1908 7 SI MM NOT_NAMED 1908-02-05 06:00:00 NR -21.7000 65.2000 main 783 783 __________O___ -1 -21.7000 65.2000 7 9 179
1908032S14431 1908 7 SI MM NOT_NAMED 1908-02-05 09:00:00 NR -22.1676 65.1943 main 795 795 __________P___ -1 -22.1676 65.1943 7 10 0
1908032S14431 1908 7 SI MM NOT_NAMED 1908-02-05 12:00:00 NR -22.7151 65.1990 main 810 810 __________P___ -1 -22.7151 65.1990 7 12 178
1908032S14431 1908 7 SI MM NOT_NAMED 1908-02-05 15:00:00 NR -23.3300 65.2291 main 834 834 __________P___ -1 -23.3300 65.2291 7 13 176
1908032S14431 1908 7 SI MM NOT_NAMED 1908-02-05 18:00:00 NR -24.0000 65.3000 main 874 874 __________O___ -1 -24.0000 65.3000 7 15 172
1908032S14431 1908 7 SI MM NOT_NAMED 1908-02-05 21:00:00 NR -24.7810 65.4500 main 933 933 __________P___ -1 -24.7810 65.4500 7 16 169
1908032S14431 1908 7 SI MM NOT_NAMED 1908-02-06 00:00:00 NR -25.5978 65.6394 main 988 988 __________P___ -1 -25.5978 65.6394 7 16 168
1908032S14431 1908 7 SI MM NOT_NAMED 1908-02-06 03:00:00 NR -26.3656 65.8344 main 1056 1056 __________P___ -1 -26.3656 65.8344 7 14 167
1908032S14431 1908 7 SI MM NOT_NAMED 1908-02-06 06:00:00 NR -27.0000 66.0000 main 1113 1113 __________O___ -1 -27.0000 66.0000 7 11 168
1908032S14431 1908 7 SI MM NOT_NAMED 1908-02-06 09:00:00 NR -27.3894 66.0793 main 1149 1149 __________P___ -1 -27.3894 66.0793 7 7 170
1908032S14431 1908 7 SI MM NOT_NAMED 1908-02-06 12:00:00 NR -27.6421 66.1243 main 1163 1163 __________P___ -1 -27.6421 66.1243 7 4 170
1908032S14431 1908 7 SI MM NOT_NAMED 1908-02-06 15:00:00 NR -27.8238 66.1571 main 1185 1185 __________P___ -1 -27.8238 66.1571 7 4 169
1908032S14431 1908 7 SI MM NOT_NAMED 1908-02-06 18:00:00 NR -28.0000 66.2000 main 1200 1200 __________O___ -1 -28.0000 66.2000 7 4 165
1908032S14431 1908 7 SI MM NOT_NAMED 1908-02-06 21:00:00 NR -28.2516 66.2817 main 1230 1230 __________P___ -1 -28.2516 66.2817 7 5 163
1908032S14431 1908 7 SI MM NOT_NAMED 1908-02-07 00:00:00 NR -28.5125 66.3778 main 1253 1253 __________P___ -1 -28.5125 66.3778 7 6 162
1908032S14431 1908 7 SI MM NOT_NAMED 1908-02-07 03:00:00 NR -28.7922 66.4850 main 1283 1283 __________P___ -1 -28.7922 66.4850 7 6 162
1908032S14431 1908 7 SI MM NOT_NAMED 1908-02-07 06:00:00 NR -29.1000 66.6000 main 1313 1313 __________O___ -1 -29.1000 66.6000 7 7 163
1908032S14431 1908 7 SI MM NOT_NAMED 1908-02-07 09:00:00 NR -29.4584 66.7177 main 1352 1352 __________P___ -1 -29.4584 66.7177 7 8 164
1908032S14431 1908 7 SI MM NOT_NAMED 1908-02-07 12:00:00 NR -29.8425 66.8423 main 1383 1383 __________P___ -1 -29.8425 66.8423 7 8 164
1908032S14431 1908 7 SI MM NOT_NAMED 1908-02-07 15:00:00 NR -30.2303 66.9709 main 1429 1429 __________P___ -1 -30.2303 66.9709 7 8 163
1908032S14431 1908 7 SI MM NOT_NAMED 1908-02-07 18:00:00 NR -30.6000 67.1000 main 1468 1468 __________O___ -1 -30.6000 67.1000 7 7 163
1908032S14431 1908 7 SI MM NOT_NAMED 1908-02-07 21:00:00 NR -30.9350 67.2271 main 1499 1499 __________P___ -1 -30.9350 67.2271 7 7 161
1908032S14431 1908 7 SI MM NOT_NAMED 1908-02-08 00:00:00 NR -31.2400 67.3522 main 1537 1537 __________P___ -1 -31.2400 67.3522 7 6 160
1908032S14431 1908 7 SI MM NOT_NAMED 1908-02-08 03:00:00 NR -31.5251 67.4762 main 1569 1569 __________P___ -1 -31.5251 67.4762 7 6 160
1908032S14431 1908 7 SI MM NOT_NAMED 1908-02-08 06:00:00 NR -31.8000 67.6000 main 1600 __________O___ -1 -31.8000 67.6000 7 6 160

About IBTrACS Database

This database is a web-friendly format of International Best Track Archive for Climate Stewardship (IBTrACS), a global best track data archive curated by NOAA dating back to 1842.

Updated: 2021-12-06